Terminal Aerodrome Forecast
Issued by NWS

Home | Current Version | Previous Version | Text Only | Print | Product List | Glossary On
Versions: 1 2 3 4 5 6 7 8 9 10 11 12 13 14 15 16 17 18
000
FTUS43 KABR 242326
TAFMBG
TAF
KMBG 242326Z 2500/2524 VRB05KT P6SM SCT250
     FM250300 11007KT P6SM VCTS BKN150CB
     FM250600 09006KT P6SM SHRA OVC090
     FM251500 12008KT P6SM BKN120=

USA.gov is the U.S. government's official web portal to all federal, state and local government web resources and services.